Time;durP1;ratioP1;P1;durP2;ratioP2;P2;SDS_P1;SDS_P2;PMS_P1;PMS_P2;Temp;Humidity;BMP_temperature;BMP_pressure;BME280_temperature;BME280_humidity;BME280_pressure;Samples;Min_cycle;Max_cycle;Signal;HPM_P1;HPM_P2
2021/10/01 00:00:13;;;;;;;;;5.50;3.75;;;;;12.76;60.40;102002.75;5079736;28;46211;-84
2021/10/01 00:02:39;;;;;;;;;7.00;6.00;;;;;12.77;60.95;102000.06;5072747;28;45386;-84
2021/10/01 00:05:04;;;;;;;;;6.00;4.25;;;;;12.77;60.71;101999.19;5070978;28;45340;-84
2021/10/01 00:07:30;;;;;;;;;6.00;5.00;;;;;12.69;61.05;101986.19;5079679;28;45283;-83
2021/10/01 00:09:55;;;;;;;;;2.75;2.75;;;;;12.70;60.80;101990.53;5078854;28;45652;-83
2021/10/01 00:12:21;;;;;;;;;6.00;6.00;;;;;12.64;61.17;101977.50;5080795;28;45212;-82
2021/10/01 00:14:48;;;;;;;;;7.25;6.00;;;;;12.61;60.78;101981.06;5083444;28;45200;-80
2021/10/01 00:17:14;;;;;;;;;7.75;5.00;;;;;12.63;60.79;101987.19;5079886;28;45232;-82
2021/10/01 00:19:39;;;;;;;;;8.50;6.25;;;;;12.61;60.98;101986.34;5081949;28;45310;-81
2021/10/01 00:22:05;;;;;;;;;6.50;6.50;;;;;12.61;61.32;101991.63;5074738;28;45161;-81
2021/10/01 00:24:31;;;;;;;;;5.00;4.00;;;;;12.55;61.28;101976.78;5075929;28;45292;-81
2021/10/01 00:26:57;;;;;;;;;6.00;4.00;;;;;12.52;61.37;101976.00;5081125;28;45532;-82
2021/10/01 00:29:23;;;;;;;;;5.00;5.00;;;;;12.50;61.29;101976.00;5082568;28;46540;-82
2021/10/01 00:31:48;;;;;;;;;6.00;4.75;;;;;12.46;61.51;101969.94;5082760;28;45240;-82
2021/10/01 00:34:14;;;;;;;;;5.75;5.00;;;;;12.46;61.79;101969.94;5064644;28;45408;-83
2021/10/01 00:36:39;;;;;;;;;4.00;4.00;;;;;12.41;61.50;101965.66;5071896;28;45349;-83
2021/10/01 00:39:06;;;;;;;;;4.00;4.00;;;;;12.44;62.22;101976.16;5082357;28;45410;-83
2021/10/01 00:41:32;;;;;;;;;7.25;5.25;;;;;12.41;61.92;101965.66;5082739;28;45598;-83
2021/10/01 00:43:57;;;;;;;;;9.75;5.00;;;;;12.38;61.63;101966.59;5082893;28;45236;-83
2021/10/01 00:46:23;;;;;;;;;5.00;5.00;;;;;12.34;62.14;101957.91;5076918;28;45252;-85
2021/10/01 00:48:48;;;;;;;;;5.25;4.00;;;;;12.35;61.75;101964.00;5064476;28;48158;-84
2021/10/01 00:51:15;;;;;;;;;5.00;4.25;;;;;12.31;61.98;101965.00;5060336;28;45675;-84
2021/10/01 00:53:42;;;;;;;;;4.00;4.00;;;;;12.27;61.81;101956.28;5082867;28;45346;-81
2021/10/01 00:56:08;;;;;;;;;3.25;3.00;;;;;12.30;61.87;101968.53;5076830;28;45319;-81
2021/10/01 00:58:33;;;;;;;;;6.00;4.00;;;;;12.29;61.75;101958.88;5075039;28;46357;-80
2021/10/01 01:03:34;;;;;;;;;6.25;5.00;;;;;12.26;61.81;101960.69;5082727;28;45360;-83
2021/10/01 01:06:06;;;;;;;;;6.00;4.50;;;;;12.27;61.78;101972.09;5068983;28;45366;-83
2021/10/01 01:08:42;;;;;;;;;5.25;5.25;;;;;12.24;61.72;101954.59;5082512;28;46563;-82
2021/10/01 01:11:26;;;;;;;;;6.00;3.00;;;;;12.24;61.88;101951.06;5082358;28;45722;-84
2021/10/01 01:14:05;;;;;;;;;4.50;3.75;;;;;12.19;61.89;101939.75;5082677;28;45356;-81
2021/10/01 01:16:34;;;;;;;;;5.00;5.00;;;;;12.20;62.10;101941.50;5076687;28;45283;-81
2021/10/01 01:19:01;;;;;;;;;5.75;5.00;;;;;12.22;62.38;101944.97;5072227;28;45430;-80
2021/10/01 01:21:35;;;;;;;;;6.25;5.00;;;;;12.23;62.11;101947.56;5070698;28;45516;-82
2021/10/01 01:24:22;;;;;;;;;3.75;3.75;;;;;12.15;61.93;101936.28;5080203;28;45385;-81
2021/10/01 01:27:15;;;;;;;;;4.75;4.00;;;;;12.15;62.37;101934.53;5076023;28;45487;-81
2021/10/01 01:30:05;;;;;;;;;6.00;4.00;;;;;12.12;62.31;101931.91;5082310;28;46266;-81
2021/10/01 01:32:33;;;;;;;;;5.75;4.00;;;;;12.10;62.41;101931.09;5080797;28;45313;-84
2021/10/01 01:35:09;;;;;;;;;5.00;4.75;;;;;12.10;62.57;101941.63;5076798;28;45230;-82
2021/10/01 01:37:53;;;;;;;;;3.00;3.00;;;;;12.10;62.53;101928.44;5081307;28;45448;-82
2021/10/01 01:40:21;;;;;;;;;4.00;4.00;;;;;12.05;62.54;101917.13;5080282;28;46648;-82
2021/10/01 01:42:49;;;;;;;;;7.75;5.00;;;;;12.00;62.78;101913.75;5080065;28;45263;-80
2021/10/01 01:45:17;;;;;;;;;6.50;3.75;;;;;11.96;63.04;101907.66;5081801;28;45276;-80
2021/10/01 01:47:44;;;;;;;;;5.25;4.00;;;;;12.01;63.03;101912.84;5081991;28;45393;-80
2021/10/01 01:50:11;;;;;;;;;3.50;3.50;;;;;11.91;63.13;101899.84;5081939;28;46345;-80
2021/10/01 01:52:39;;;;;;;;;5.50;4.75;;;;;11.91;63.20;101907.75;5074588;28;45261;-80
2021/10/01 01:55:06;;;;;;;;;6.50;4.50;;;;;11.88;63.20;101899.91;5069032;28;45411;-80
2021/10/01 01:57:33;;;;;;;;;5.00;4.00;;;;;11.87;63.09;101895.56;5069578;28;45965;-80
2021/10/01 02:00:00;;;;;;;;;4.50;4.00;;;;;11.88;63.27;101899.03;5067152;28;45349;-80
2021/10/01 02:02:26;;;;;;;;;2.50;2.50;;;;;11.85;63.42;101883.31;5069906;28;45641;-85
2021/10/01 02:04:53;;;;;;;;;5.50;4.25;;;;;11.84;63.78;101884.19;5074756;28;45294;-84
2021/10/01 02:07:20;;;;;;;;;4.50;3.75;;;;;11.85;64.12;101878.91;5074146;28;45471;-85
2021/10/01 02:09:46;;;;;;;;;5.00;4.00;;;;;11.80;63.79;101875.50;5052167;28;47231;-82
2021/10/01 02:12:13;;;;;;;;;6.25;5.00;;;;;11.79;63.83;101874.63;5052072;28;45454;-82
2021/10/01 02:14:42;;;;;;;;;4.25;4.25;;;;;11.77;63.80;101870.28;5081666;28;45259;-83
2021/10/01 02:17:10;;;;;;;;;4.25;3.25;;;;;11.77;63.79;101865.91;5080834;28;45504;-83
2021/10/01 02:19:38;;;;;;;;;4.00;3.50;;;;;11.75;64.13;101857.16;5076248;28;46352;-83
2021/10/01 02:22:05;;;;;;;;;5.75;4.25;;;;;11.78;63.97;101864.97;5078463;28;45236;-83
2021/10/01 02:24:32;;;;;;;;;3.50;3.50;;;;;11.76;64.15;101858.00;5078339;28;45616;-83
2021/10/01 02:27:08;;;;;;;;;5.00;5.00;;;;;11.74;64.14;101858.03;5081373;28;45357;-83
2021/10/01 02:30:09;;;;;;;;;5.00;5.00;;;;;11.81;64.03;101856.16;5072420;28;46537;-84
2021/10/01 02:32:40;;;;;;;;;6.75;4.50;;;;;11.77;64.15;101855.34;5063520;28;45295;-85
2021/10/01 02:35:08;;;;;;;;;5.75;4.75;;;;;11.72;63.91;101837.91;5081258;28;45278;-84
2021/10/01 02:37:33;;;;;;;;;7.00;3.50;;;;;11.75;64.06;101846.63;5076097;28;45271;-80
2021/10/01 02:40:00;;;;;;;;;4.00;4.00;;;;;11.74;63.99;101839.59;5072515;28;45286;-81
2021/10/01 02:42:27;;;;;;;;;5.00;3.00;;;;;11.73;63.83;101842.28;5053277;28;45618;-81
2021/10/01 05:15:50;;;;;;;;;2.50;2.50;;;;;11.37;65.64;101741.16;5315922;22;45911;-81
2021/10/01 05:18:17;;;;;;;;;3.50;3.50;;;;;11.39;65.50;101736.72;5082015;27;45412;-82
2021/10/01 05:20:43;;;;;;;;;6.75;3.00;;;;;11.42;65.78;101733.16;5080793;27;45537;-83
2021/10/01 05:23:08;;;;;;;;;9.00;6.75;;;;;11.48;65.33;101740.97;5082230;28;45212;-82
2021/10/01 05:25:34;;;;;;;;;8.00;7.25;;;;;11.43;65.60;101729.66;5077736;27;45443;-84
2021/10/01 05:27:59;;;;;;;;;4.50;4.50;;;;;11.51;65.78;101737.41;5079993;28;45408;-82
2021/10/01 05:30:25;;;;;;;;;9.25;5.50;;;;;11.48;65.35;101739.16;5081084;28;45151;-83
2021/10/01 05:32:50;;;;;;;;;7.00;7.00;;;;;11.49;65.63;101734.78;5080305;28;45692;-83
2021/10/01 05:35:15;;;;;;;;;7.75;6.00;;;;;11.50;65.63;101731.25;5081997;28;45215;-83
2021/10/01 05:37:41;;;;;;;;;4.00;4.00;;;;;11.53;65.58;101730.31;5081726;27;46189;-83
2021/10/01 05:40:07;;;;;;;;;4.00;3.00;;;;;11.52;65.51;101723.31;5081686;28;45380;-83
2021/10/01 05:42:33;;;;;;;;;5.75;3.75;;;;;11.56;65.54;101731.13;5082119;27;45392;-83
2021/10/01 05:44:59;;;;;;;;;3.00;3.00;;;;;11.55;65.50;101725.88;5057905;28;45903;-83
2021/10/01 05:47:25;;;;;;;;;5.00;3.00;;;;;11.56;65.53;101722.34;5081385;27;46110;-83
2021/10/01 05:49:50;;;;;;;;;5.25;5.25;;;;;11.59;65.77;101725.78;5080489;28;45393;-83
2021/10/01 05:52:22;;;;;;;;;4.00;3.75;;;;;11.61;65.30;101720.47;5081939;28;45482;-83
2021/10/01 05:54:51;;;;;;;;;6.50;4.50;;;;;11.57;65.32;101705.66;5081575;28;45525;-83
2021/10/01 05:57:20;;;;;;;;;4.25;3.75;;;;;11.60;65.45;101710.88;5079378;27;45434;-83
2021/10/01 05:59:46;;;;;;;;;5.00;3.75;;;;;11.59;65.42;101714.38;5068434;27;45584;-83
2021/10/01 06:02:14;;;;;;;;;4.00;4.00;;;;;11.63;65.61;101716.03;5081341;28;45447;-83
2021/10/01 06:04:40;;;;;;;;;4.00;4.00;;;;;11.64;65.71;101709.88;5071996;27;45516;-83
2021/10/01 06:07:06;;;;;;;;;4.00;4.00;;;;;11.66;65.61;101713.34;5090771;27;46303;-83
2021/10/01 06:09:32;;;;;;;;;6.25;4.00;;;;;11.64;65.64;101707.25;5081321;28;45287;-83
2021/10/01 06:11:57;;;;;;;;;6.25;4.00;;;;;11.68;65.44;101705.44;5081083;28;45432;-82
2021/10/01 06:14:24;;;;;;;;;5.00;4.25;;;;;11.71;65.35;101707.97;5081279;28;45403;-83
2021/10/01 06:16:50;;;;;;;;;4.00;4.00;;;;;11.69;65.61;101704.50;5078348;27;46168;-86
2021/10/01 06:19:17;;;;;;;;;5.50;5.00;;;;;11.72;65.74;101717.63;5081348;28;45881;-85
2021/10/01 06:21:43;;;;;;;;;5.00;4.50;;;;;11.78;65.63;101714.84;5080394;28;45531;-86
2021/10/01 06:24:08;;;;;;;;;4.00;4.00;;;;;11.83;65.74;101717.38;5080321;27;45524;-83
2021/10/01 06:26:34;;;;;;;;;4.00;4.00;;;;;11.89;65.37;101721.63;5062885;28;47148;-87
2021/10/01 06:28:59;;;;;;;;;6.75;4.00;;;;;11.96;65.21;101722.34;5081202;27;45298;-86
2021/10/01 06:31:25;;;;;;;;;3.75;3.00;;;;;12.02;65.22;101724.88;5079931;28;45783;-86
2021/10/01 06:33:50;;;;;;;;;3.00;3.00;;;;;12.09;65.27;101723.81;5080522;28;45727;-86
2021/10/01 06:36:19;;;;;;;;;6.00;5.00;;;;;12.13;65.11;101714.97;5062484;28;47171;-86
2021/10/01 06:38:45;;;;;;;;;4.50;2.75;;;;;12.25;65.12;101715.56;5047712;27;45337;-86
2021/10/01 06:41:11;;;;;;;;;5.00;5.00;;;;;12.30;65.07;101704.94;5073095;28;45410;-87
2021/10/01 06:43:37;;;;;;;;;3.75;3.75;;;;;12.31;64.90;101696.97;5059373;28;46049;-86
2021/10/01 06:46:06;;;;;;;;;8.25;4.00;;;;;12.40;64.93;101700.25;5080349;28;45278;-87
2021/10/01 07:35:49;;;;;;;;;5.75;4.75;;;;;13.49;63.70;101689.38;5078161;28;45352;-87
2021/10/01 08:21:43;;;;;;;;;1.50;1.50;;;;;14.24;63.18;101673.00;5079580;27;45210;-87
2021/10/01 08:24:08;;;;;;;;;4.00;4.00;;;;;14.24;63.14;101666.84;5078802;28;45561;-87
2021/10/01 08:26:34;;;;;;;;;2.75;1.50;;;;;14.29;63.19;101665.78;5078865;28;45285;-87
2021/10/01 08:28:59;;;;;;;;;3.50;2.75;;;;;14.31;62.91;101663.06;5079564;28;45223;-87
2021/10/01 08:31:27;;;;;;;;;4.00;1.75;;;;;14.36;62.86;101661.13;5079423;28;45504;-88
2021/10/01 08:33:53;;;;;;;;;3.50;3.50;;;;;14.42;62.84;101664.50;5082823;28;45477;-87
2021/10/01 08:36:18;;;;;;;;;3.25;3.00;;;;;14.49;63.14;101666.00;5063112;28;45862;-87
2021/10/01 08:38:47;;;;;;;;;4.00;2.00;;;;;14.60;63.04;101649.75;5082480;27;45573;-87
2021/10/01 08:41:13;;;;;;;;;2.75;2.75;;;;;14.66;63.00;101646.03;5064124;27;47259;-87
2021/10/01 08:43:42;;;;;;;;;4.00;2.75;;;;;14.76;62.79;101641.25;5082992;28;45312;-87
2021/10/01 08:46:09;;;;;;;;;6.75;2.75;;;;;14.85;62.57;101638.28;5081798;28;45243;-88
2021/10/01 08:48:36;;;;;;;;;2.00;2.00;;;;;14.94;62.50;101645.91;5064595;28;45416;-88
2021/10/01 08:51:04;;;;;;;;;4.00;2.50;;;;;15.02;62.29;101644.75;5064526;28;46173;-87
2021/10/01 08:53:31;;;;;;;;;3.00;2.00;;;;;15.05;62.06;101632.28;5082058;28;45476;-87
2021/10/01 08:55:58;;;;;;;;;2.00;2.00;;;;;15.14;62.49;101638.13;5082837;27;45713;-87
2021/10/01 08:58:25;;;;;;;;;3.00;2.00;;;;;15.19;61.82;101628.22;5064263;28;45397;-88
2021/10/01 09:00:51;;;;;;;;;2.00;2.00;;;;;15.27;61.74;101639.41;5071467;27;45469;-88
2021/10/01 09:03:17;;;;;;;;;2.50;2.00;;;;;15.29;61.84;101634.91;5063724;28;47495;-87
2021/10/01 09:05:43;;;;;;;;;2.00;2.00;;;;;15.34;61.76;101620.59;5081461;27;45313;-87
2021/10/01 09:08:14;;;;;;;;;1.75;1.75;;;;;15.40;61.31;101623.03;5082666;27;45355;-87
2021/10/01 09:10:40;;;;;;;;;5.00;2.00;;;;;15.40;61.56;101615.97;5080769;28;45947;-87
2021/10/01 09:13:09;;;;;;;;;4.00;3.00;;;;;15.44;61.53;101615.81;5082108;28;45514;-87
2021/10/01 09:15:42;;;;;;;;;3.50;3.00;;;;;15.47;61.47;101611.28;5081798;28;45253;-87
2021/10/01 09:18:08;;;;;;;;;2.25;2.25;;;;;15.45;61.33;101613.13;5054996;28;45321;-87
2021/10/01 09:20:34;;;;;;;;;1.75;1.75;;;;;15.46;61.47;101614.84;5080758;27;46174;-87
2021/10/01 09:23:21;;;;;;;;;4.75;2.75;;;;;15.53;61.40;101615.47;5063732;28;47876;-88
2021/10/01 09:25:47;;;;;;;;;3.00;2.50;;;;;15.50;61.35;101608.50;5081702;27;45972;-86
2021/10/01 09:28:12;;;;;;;;;6.50;3.50;;;;;15.56;61.37;101612.69;5081007;27;45949;-88
2021/10/01 09:30:49;;;;;;;;;3.25;3.00;;;;;15.61;61.11;101612.50;5081354;27;45358;-86
2021/10/01 09:33:17;;;;;;;;;3.25;1.50;;;;;15.63;61.58;101606.19;5055754;27;47431;-89
2021/10/01 09:35:44;;;;;;;;;2.00;2.00;;;;;15.71;61.47;101613.84;5085736;27;45213;-90
2021/10/01 09:38:18;;;;;;;;;3.25;3.00;;;;;15.73;61.65;101608.47;5063607;28;45351;-87
2021/10/01 09:40:45;;;;;;;;;2.75;2.50;;;;;15.73;61.88;101596.09;5081682;27;45236;-89
2021/10/01 09:43:29;;;;;;;;;4.00;3.00;;;;;15.86;61.62;101601.75;5081227;27;45304;-87
2021/10/01 09:46:09;;;;;;;;;4.00;3.50;;;;;15.88;62.24;101604.31;5063255;28;45633;-87
2021/10/01 09:48:36;;;;;;;;;3.00;3.00;;;;;15.93;62.28;101601.47;5076595;27;45444;-87
2021/10/01 09:51:10;;;;;;;;;4.50;2.25;;;;;15.96;62.46;101602.22;5086023;27;45514;-90
2021/10/01 09:53:47;;;;;;;;;4.25;2.00;;;;;16.00;62.83;101591.50;5063377;28;47359;-87
2021/10/01 09:56:30;;;;;;;;;2.25;2.25;;;;;16.00;63.04;101594.16;5081207;28;45507;-88
2021/10/01 09:59:10;;;;;;;;;2.75;2.75;;;;;16.02;62.87;101598.47;5081822;28;45432;-88
2021/10/01 10:02:02;;;;;;;;;2.00;2.00;;;;;16.04;63.29;101609.00;5063300;28;46309;-88
2021/10/01 10:04:29;;;;;;;;;4.50;2.00;;;;;16.01;63.84;101598.50;5080691;28;46359;-88
2021/10/01 10:06:55;;;;;;;;;3.00;3.00;;;;;16.02;63.92;101597.59;5081190;28;45531;-87
2021/10/01 10:09:30;;;;;;;;;1.25;1.00;;;;;16.04;63.53;101594.00;5081487;27;45312;-87
2021/10/01 10:11:56;;;;;;;;;3.25;2.25;;;;;16.04;63.62;101598.38;5062597;28;46027;-88
2021/10/01 10:14:21;;;;;;;;;2.25;2.25;;;;;16.06;64.13;101597.44;5063015;28;48191;-88
2021/10/01 10:16:46;;;;;;;;;2.00;2.00;;;;;16.06;64.02;101593.91;5081135;27;45320;-88
2021/10/01 10:19:20;;;;;;;;;4.00;3.50;;;;;16.07;63.79;101593.00;5081818;27;45838;-88
2021/10/01 10:21:46;;;;;;;;;4.75;2.75;;;;;16.09;64.14;101580.53;5080870;28;45454;-88
2021/10/01 10:24:11;;;;;;;;;3.50;3.00;;;;;16.17;64.73;101596.94;5081026;27;45480;-88
2021/10/01 10:26:37;;;;;;;;;5.00;3.00;;;;;16.26;64.33;101593.06;5079899;28;45511;-88
2021/10/01 10:29:06;;;;;;;;;3.50;2.50;;;;;16.31;64.24;101596.38;5080589;27;45432;-88
2021/10/01 10:31:34;;;;;;;;;1.25;1.25;;;;;16.33;63.13;101587.47;5077766;28;45515;-88
2021/10/01 10:34:00;;;;;;;;;1.00;1.00;;;;;16.34;63.51;101584.78;5080355;28;45366;-88
2021/10/01 10:36:35;;;;;;;;;1.25;1.25;;;;;16.42;63.20;101590.56;5079226;28;45523;-88
2021/10/01 10:39:12;;;;;;;;;4.00;1.50;;;;;16.44;62.63;101587.88;5062628;27;45429;-87
2021/10/01 10:41:40;;;;;;;;;3.00;3.00;;;;;16.47;62.69;101581.56;5070046;28;45499;-87
2021/10/01 10:44:07;;;;;;;;;2.50;2.50;;;;;16.50;62.82;101590.25;5080131;28;46459;-87
2021/10/01 10:46:36;;;;;;;;;1.00;1.00;;;;;16.56;63.27;101585.59;5080412;28;45347;-88
2021/10/01 10:49:21;;;;;;;;;3.00;1.75;;;;;16.60;62.77;101580.06;5062633;28;45282;-88
2021/10/01 10:52:14;;;;;;;;;1.00;1.00;;;;;16.64;62.79;101581.66;5079377;28;45427;-88
2021/10/01 10:54:43;;;;;;;;;1.00;1.00;;;;;16.61;61.81;101563.25;5079916;28;45479;-87
2021/10/01 10:57:18;;;;;;;;;1.50;1.50;;;;;16.69;62.25;101562.03;5078563;27;45390;-88
2021/10/01 10:59:49;;;;;;;;;4.00;2.00;;;;;16.71;62.40;101561.03;5080056;28;45319;-88
2021/10/01 11:02:30;;;;;;;;;1.50;1.50;;;;;16.73;62.26;101552.97;5079812;28;45560;-87
2021/10/01 11:05:26;;;;;;;;;1.00;1.00;;;;;16.74;62.01;101557.38;5061905;28;47108;-87
2021/10/01 11:08:02;;;;;;;;;2.50;2.00;;;;;16.73;63.01;101558.28;5062338;28;45241;-87
2021/10/01 11:10:37;;;;;;;;;2.75;1.25;;;;;16.77;62.40;101559.84;5061898;27;45311;-88
2021/10/01 11:13:24;;;;;;;;;1.50;1.50;;;;;16.76;62.89;101555.50;5061914;28;46248;-88
2021/10/01 11:16:07;;;;;;;;;1.00;1.00;;;;;16.75;63.16;101551.09;5079595;28;45554;-88
2021/10/01 11:18:57;;;;;;;;;3.25;2.00;;;;;16.73;63.09;101545.00;5080582;27;45474;-88
2021/10/01 11:21:35;;;;;;;;;2.00;2.00;;;;;16.78;63.05;101545.66;5079782;28;45440;-88
2021/10/01 11:24:09;;;;;;;;;1.00;1.00;;;;;16.80;63.07;101529.66;5079351;27;45460;-87
2021/10/01 11:26:48;;;;;;;;;1.75;1.00;;;;;16.82;63.38;101531.31;5078887;28;45704;-87
2021/10/01 11:29:25;;;;;;;;;1.75;1.50;;;;;16.87;63.45;101526.66;5076221;28;45401;-87
2021/10/01 11:31:54;;;;;;;;;3.75;1.00;;;;;16.95;63.57;101520.09;5061553;28;45279;-87
2021/10/01 11:34:44;;;;;;;;;2.00;2.00;;;;;16.97;63.34;101511.13;5078703;28;45271;-91
2021/10/01 11:37:32;;;;;;;;;2.00;2.00;;;;;16.98;62.94;101504.91;5074838;28;48311;-87
2021/10/01 11:39:57;;;;;;;;;1.00;1.00;;;;;17.06;62.77;101509.81;5081345;27;45275;-90
2021/10/01 11:42:30;;;;;;;;;4.50;1.50;;;;;17.09;63.18;101512.34;5079934;28;45423;-88
2021/10/01 11:44:58;;;;;;;;;2.00;1.75;;;;;17.12;62.97;101510.47;5080300;28;45250;-86
2021/10/01 11:47:24;;;;;;;;;1.00;1.00;;;;;17.15;63.01;101510.31;5080149;27;45995;-89
2021/10/01 11:49:58;;;;;;;;;1.00;1.00;;;;;17.18;62.31;101508.41;5061700;28;45303;-92
2021/10/01 11:52:25;;;;;;;;;3.00;2.00;;;;;17.20;62.11;101495.91;5067393;28;45429;-87
2021/10/01 11:54:57;;;;;;;;;1.00;1.00;;;;;17.28;62.17;101497.34;5079909;28;45417;-87
2021/10/01 11:57:32;;;;;;;;;1.00;1.00;;;;;17.34;62.07;101506.78;5061977;28;46013;-87
2021/10/01 12:00:04;;;;;;;;;2.75;1.50;;;;;17.37;62.54;101493.34;5079212;27;45327;-86
2021/10/01 12:02:36;;;;;;;;;0.00;0.00;;;;;17.34;61.58;101486.38;5080366;28;45313;-85
2021/10/01 12:05:30;;;;;;;;;1.00;1.00;;;;;17.33;61.57;101490.00;5079717;28;45506;-86
2021/10/01 12:07:57;;;;;;;;;0.50;0.50;;;;;17.23;61.69;101486.94;5081362;28;45332;-87
2021/10/01 12:10:25;;;;;;;;;1.00;1.00;;;;;17.23;61.41;101480.75;5063864;28;45859;-86
2021/10/01 12:13:23;;;;;;;;;0.50;0.50;;;;;17.25;61.05;101487.72;5081850;27;45210;-87
2021/10/01 12:15:51;;;;;;;;;1.25;1.25;;;;;17.28;61.39;101476.09;5081266;27;45593;-87
2021/10/01 12:18:57;;;;;;;;;0.50;0.50;;;;;17.33;61.20;101476.72;5081190;27;45455;-88
2021/10/01 12:21:25;;;;;;;;;1.75;1.75;;;;;17.39;60.91;101475.53;5081726;28;45262;-87
2021/10/01 12:24:06;;;;;;;;;1.75;1.75;;;;;17.49;61.28;101473.25;5064060;28;45344;-87
2021/10/01 12:26:39;;;;;;;;;1.00;1.00;;;;;17.50;60.96;101467.88;5082748;27;45801;-88
2021/10/01 12:29:15;;;;;;;;;1.75;1.00;;;;;17.60;60.54;101475.38;5082458;28;45411;-87
2021/10/01 12:32:03;;;;;;;;;1.00;1.00;;;;;17.62;60.79;101465.53;5081807;27;45612;-87
2021/10/01 12:34:29;;;;;;;;;2.25;1.00;;;;;17.69;60.62;101466.06;5070726;28;45172;-88
2021/10/01 12:37:07;;;;;;;;;1.75;1.00;;;;;17.67;60.75;101452.88;5082649;28;45445;-89
2021/10/01 12:39:35;;;;;;;;;0.50;0.25;;;;;17.70;60.20;101452.72;5064690;28;47242;-88
2021/10/01 12:42:09;;;;;;;;;1.25;1.00;;;;;17.75;60.23;101445.34;5081957;28;45443;-88
2021/10/01 12:44:39;;;;;;;;;2.25;2.25;;;;;17.77;60.19;101442.63;5070043;27;45422;-88
2021/10/01 12:47:14;;;;;;;;;1.00;1.00;;;;;17.83;59.83;101441.44;5081855;27;45598;-88
2021/10/01 12:49:41;;;;;;;;;2.00;1.00;;;;;17.80;59.58;101446.91;5072066;28;48106;-89
2021/10/01 12:52:14;;;;;;;;;1.00;1.00;;;;;17.86;60.20;101441.25;5081265;27;45152;-87
2021/10/01 12:54:52;;;;;;;;;2.50;1.00;;;;;17.87;59.78;101424.38;5064514;28;45386;-86
2021/10/01 12:57:27;;;;;;;;;2.00;0.75;;;;;17.87;60.09;101424.38;5082275;27;45273;-86
2021/10/01 13:00:01;;;;;;;;;1.00;1.00;;;;;17.94;60.11;101423.09;5059338;28;47134;-87
2021/10/01 13:02:26;;;;;;;;;1.00;0.00;;;;;17.95;60.04;101419.47;5079766;28;45483;-86
2021/10/01 13:05:04;;;;;;;;;1.50;1.25;;;;;17.93;59.42;101413.41;5082781;27;45476;-86
2021/10/01 13:07:42;;;;;;;;;2.50;1.00;;;;;17.95;59.89;101414.16;5078777;27;45523;-86
2021/10/01 13:10:31;;;;;;;;;1.00;0.75;;;;;17.96;59.80;101407.91;5060865;28;46487;-86
2021/10/01 13:12:58;;;;;;;;;2.00;0.75;;;;;17.99;59.22;101418.41;5063883;28;45525;-86
2021/10/01 13:15:42;;;;;;;;;4.75;1.00;;;;;17.99;59.94;101409.56;5062775;27;45543;-86
2021/10/01 13:18:21;;;;;;;;;2.75;1.00;;;;;17.97;59.90;101409.66;5081269;27;45495;-87
2021/10/01 13:20:54;;;;;;;;;2.00;1.00;;;;;17.93;59.41;101409.88;5081889;28;45657;-86
2021/10/01 13:23:28;;;;;;;;;3.00;1.00;;;;;17.94;60.76;101419.59;5081734;28;45498;-86
2021/10/01 13:25:55;;;;;;;;;1.25;0.25;;;;;17.90;60.85;101413.59;5058762;28;45271;-86
2021/10/01 13:28:23;;;;;;;;;2.00;2.00;;;;;17.91;60.43;101409.97;5081774;28;45337;-87
2021/10/01 13:30:50;;;;;;;;;0.50;0.50;;;;;17.88;60.09;101413.66;5080963;28;45501;-86
2021/10/01 13:33:18;;;;;;;;;1.00;1.00;;;;;17.88;60.15;101408.31;5063207;28;45209;-86
2021/10/01 13:35:43;;;;;;;;;1.00;1.00;;;;;17.84;59.45;101409.44;5082138;28;45332;-86
2021/10/01 13:38:10;;;;;;;;;2.75;2.75;;;;;17.82;59.99;101397.16;5081405;28;45506;-85
2021/10/01 13:40:38;;;;;;;;;1.00;1.00;;;;;17.80;60.05;101399.06;5080230;28;46320;-86
2021/10/01 13:43:04;;;;;;;;;2.50;2.00;;;;;17.81;60.16;101406.06;5081115;27;45173;-86
2021/10/01 13:45:30;;;;;;;;;1.00;1.00;;;;;17.71;60.58;101406.56;5081315;27;45317;-86
2021/10/01 13:47:56;;;;;;;;;1.25;1.00;;;;;17.71;61.05;101413.69;5081792;27;45398;-86
2021/10/01 13:50:21;;;;;;;;;1.00;1.00;;;;;17.66;61.82;101412.13;5081468;28;45374;-86
2021/10/01 13:52:47;;;;;;;;;0.75;0.75;;;;;17.64;62.42;101410.50;5081559;27;45341;-86
2021/10/01 13:55:14;;;;;;;;;1.00;1.00;;;;;17.66;63.43;101424.56;5081938;27;45727;-86
2021/10/01 13:57:39;;;;;;;;;1.00;1.00;;;;;17.65;63.74;101422.84;5081098;28;45310;-86
2021/10/01 14:00:07;;;;;;;;;1.00;1.00;;;;;17.62;63.65;101418.56;5052509;28;46962;-86
2021/10/01 14:02:34;;;;;;;;;3.00;2.00;;;;;17.61;63.28;101410.66;5081344;28;45471;-86
2021/10/01 14:05:00;;;;;;;;;2.00;2.00;;;;;17.58;63.71;101416.16;5081805;27;45285;-86
2021/10/01 14:07:25;;;;;;;;;1.00;1.00;;;;;17.59;63.95;101416.06;5080954;27;45488;-86
2021/10/01 14:09:51;;;;;;;;;2.50;2.00;;;;;17.52;64.08;101399.56;5081511;27;46333;-86
2021/10/01 14:12:16;;;;;;;;;1.75;1.75;;;;;17.55;63.83;101409.19;5080868;27;45454;-86
2021/10/01 14:14:42;;;;;;;;;1.00;1.00;;;;;17.55;64.12;101409.19;5081193;27;45542;-86
2021/10/01 14:17:07;;;;;;;;;3.50;3.00;;;;;17.56;64.14;101410.06;5080829;27;45386;-84
2021/10/01 14:19:33;;;;;;;;;1.75;1.00;;;;;17.58;64.12;101410.81;5080761;28;46176;-83
2021/10/01 14:21:58;;;;;;;;;1.75;1.75;;;;;17.54;63.24;101407.47;5081215;27;45475;-83
2021/10/01 14:24:24;;;;;;;;;2.50;2.25;;;;;17.60;64.35;101408.94;5078892;28;45453;-83
2021/10/01 14:26:49;;;;;;;;;2.00;2.00;;;;;17.61;64.02;101405.31;5081092;27;45456;-83
2021/10/01 14:29:15;;;;;;;;;3.25;3.00;;;;;17.62;64.33;101401.75;5080084;27;46006;-82
2021/10/01 14:31:40;;;;;;;;;4.50;4.00;;;;;17.58;64.49;101400.19;5080629;28;45475;-82
2021/10/01 14:34:05;;;;;;;;;3.25;3.25;;;;;17.57;64.89;101395.81;5080467;28;45465;-86
2021/10/01 14:36:31;;;;;;;;;2.25;2.25;;;;;17.53;65.37;101389.81;5080429;28;45263;-84
2021/10/01 14:38:56;;;;;;;;;4.75;2.00;;;;;17.54;65.02;101381.75;5062637;28;47736;-84
2021/10/01 14:41:22;;;;;;;;;4.25;3.25;;;;;17.51;65.06;101381.91;5062845;28;45221;-84
2021/10/01 14:43:47;;;;;;;;;2.25;2.00;;;;;17.51;64.86;101387.22;5070778;27;45255;-84
2021/10/01 14:46:12;;;;;;;;;3.00;2.00;;;;;17.47;64.38;101380.34;5080693;28;45308;-84
2021/10/01 14:48:38;;;;;;;;;2.25;1.25;;;;;17.43;64.83;101381.47;5080623;28;46398;-84
2021/10/01 14:51:04;;;;;;;;;4.00;4.00;;;;;17.41;65.77;101381.50;5080956;27;45261;-84
2021/10/01 14:53:30;;;;;;;;;3.25;2.00;;;;;17.39;65.58;101377.22;5080836;27;45457;-84
2021/10/01 14:55:57;;;;;;;;;3.25;2.50;;;;;17.38;65.47;101388.81;5080978;28;45305;-84
2021/10/01 14:58:23;;;;;;;;;4.75;2.00;;;;;17.34;65.23;101397.84;5079461;28;46477;-84
2021/10/01 15:00:50;;;;;;;;;1.50;1.00;;;;;17.31;65.22;101393.56;5079821;28;45319;-83
2021/10/01 15:03:17;;;;;;;;;1.00;1.00;;;;;17.29;66.02;101395.44;5078316;28;45400;-87
2021/10/01 15:05:43;;;;;;;;;3.00;3.00;;;;;17.24;66.23;101382.38;5080818;28;45519;-88
2021/10/01 15:08:08;;;;;;;;;2.50;2.50;;;;;17.24;66.44;101381.53;5079995;28;46243;-87
2021/10/01 15:10:34;;;;;;;;;2.00;2.00;;;;;17.20;65.93;101375.53;5080915;27;45216;-87
2021/10/01 15:13:00;;;;;;;;;2.00;2.00;;;;;17.18;66.33;101369.44;5079726;27;45443;-87
2021/10/01 15:15:27;;;;;;;;;2.00;2.00;;;;;17.19;66.26;101373.78;5079989;28;45214;-87
2021/10/01 15:17:53;;;;;;;;;4.00;1.00;;;;;17.16;66.27;101364.19;5080030;28;46254;-88
2021/10/01 15:20:19;;;;;;;;;3.50;2.00;;;;;17.18;66.15;101366.78;5061828;28;46264;-87
2021/10/01 15:22:44;;;;;;;;;4.00;3.50;;;;;17.18;66.43;101374.75;5080060;28;45443;-88
2021/10/01 15:25:11;;;;;;;;;4.50;4.50;;;;;17.16;66.89;101374.81;5061871;28;46095;-88
2021/10/01 15:27:38;;;;;;;;;4.75;4.00;;;;;17.17;66.89;101367.69;5079141;28;46402;-87
2021/10/01 15:30:03;;;;;;;;;3.50;3.50;;;;;17.16;67.45;101364.19;5080163;27;45538;-88
2021/10/01 15:32:32;;;;;;;;;2.50;2.25;;;;;17.10;67.44;101354.72;5080432;28;45164;-87
2021/10/01 15:34:58;;;;;;;;;5.00;4.00;;;;;17.09;67.60;101352.97;5080234;28;45421;-87
2021/10/01 15:37:24;;;;;;;;;2.00;2.00;;;;;17.09;67.48;101363.59;5079216;28;45416;-88
2021/10/01 15:39:49;;;;;;;;;4.00;2.00;;;;;17.08;66.81;101356.59;5061843;28;45660;-86